Time;durP1;ratioP1;P1;durP2;ratioP2;P2;SDS_P1;SDS_P2;PMS_P1;PMS_P2;Temp;Humidity;BMP_temperature;BMP_pressure;BME280_temperature;BME280_humidity;BME280_pressure;Samples;Min_cycle;Max_cycle;Signal;HPM_P1;HPM_P2
2022/01/06 00:00:07;;;;;;;5.80;1.80;;;;;;;-1.44;100.00;92686.91;2089803;28;20025;-83
2022/01/06 00:01:08;;;;;;;4.22;1.73;;;;;;;-1.26;100.00;92687.94;2084756;28;20029;-84
2022/01/06 00:02:09;;;;;;;6.78;1.92;;;;;;;-1.52;100.00;92686.03;2089883;28;20158;-84
2022/01/06 00:03:10;;;;;;;5.18;1.65;;;;;;;-1.56;100.00;92691.19;2098041;28;20024;-84
2022/01/06 00:04:11;;;;;;;6.75;2.22;;;;;;;-1.62;100.00;92687.38;2106391;28;20054;-84
2022/01/06 00:05:12;;;;;;;6.90;1.92;;;;;;;-1.73;100.00;92688.28;2098579;28;20111;-84
2022/01/06 00:06:13;;;;;;;8.25;2.17;;;;;;;-1.65;100.00;92688.06;2087708;28;20024;-83
2022/01/06 00:07:14;;;;;;;3.40;1.85;;;;;;;-1.79;100.00;92695.69;2098042;28;20016;-84
2022/01/06 00:08:15;;;;;;;6.47;2.45;;;;;;;-1.83;100.00;92703.47;2089794;28;20059;-84
2022/01/06 00:09:18;;;;;;;3.42;1.88;;;;;;;-1.86;100.00;92700.78;2097213;28;20124;-85
2022/01/06 00:10:19;;;;;;;6.07;1.92;;;;;;;-1.85;100.00;92707.53;2098271;28;20025;-84
2022/01/06 00:11:20;;;;;;;6.70;2.03;;;;;;;-1.81;100.00;92698.63;2098353;28;20469;-84
2022/01/06 00:12:28;;;;;;;8.88;2.08;;;;;;;-1.76;100.00;92702.81;2094080;28;20052;-84
2022/01/06 00:14:09;;;;;;;5.82;2.10;;;;;;;-1.76;100.00;92697.59;2091686;28;20016;-84
2022/01/06 00:15:04;;;;;;;6.15;1.80;;;;;;;-1.79;100.00;92698.31;2100368;28;20589;-84
2022/01/06 00:16:16;;;;;;;6.40;1.65;;;;;;;-1.74;100.00;92698.00;2096791;28;20028;-83
2022/01/06 00:17:46;;;;;;;8.13;2.10;;;;;;;-1.65;100.00;92701.16;2091041;28;20127;-84
2022/01/06 00:24:06;;;;;;;4.07;1.95;;;;;;;-1.64;100.00;92707.91;2100766;28;20436;-83
2022/01/06 00:25:08;;;;;;;3.72;1.70;;;;;;;-1.66;100.00;92704.88;2098159;28;20062;-84
2022/01/06 00:26:10;;;;;;;4.07;2.03;;;;;;;-1.70;100.00;92708.56;2097785;28;20165;-85
2022/01/06 00:27:11;;;;;;;6.20;1.83;;;;;;;-1.59;100.00;92705.00;2085938;28;20024;-83
2022/01/06 00:28:12;;;;;;;5.53;1.95;;;;;;;-1.58;100.00;92706.53;2088568;28;20025;-84
2022/01/06 00:29:13;;;;;;;5.15;1.85;;;;;;;-1.54;100.00;92707.34;2089890;28;20029;-84
2022/01/06 00:30:14;;;;;;;3.13;1.75;;;;;;;-1.55;100.00;92705.81;2097945;28;20024;-83
2022/01/06 00:31:15;;;;;;;7.05;2.33;;;;;;;-1.70;100.00;92698.84;2098131;28;20024;-84
2022/01/06 00:32:16;;;;;;;4.97;1.85;;;;;;;-1.70;100.00;92698.84;2097823;28;20060;-83
2022/01/06 00:33:17;;;;;;;6.28;2.00;;;;;;;-1.74;100.00;92695.38;2089775;28;20044;-84
2022/01/06 00:34:18;;;;;;;4.57;1.70;;;;;;;-1.59;100.00;92702.38;2094574;28;20447;-83
2022/01/06 00:35:19;;;;;;;7.30;1.98;;;;;;;-1.67;100.00;92697.34;2097406;28;20056;-84
2022/01/06 00:36:20;;;;;;;5.07;1.90;;;;;;;-1.54;100.00;92690.84;2089840;28;20028;-83
2022/01/06 00:37:21;;;;;;;4.22;2.38;;;;;;;-1.64;100.00;92699.28;2097704;28;20062;-83
2022/01/06 00:38:24;;;;;;;5.72;1.70;;;;;;;-1.64;100.00;92697.44;2097971;28;20024;-83
2022/01/06 00:39:27;;;;;;;4.30;1.98;;;;;;;-1.73;100.00;92704.75;2098309;28;20036;-83
2022/01/06 00:40:28;;;;;;;3.60;1.58;;;;;;;-1.79;100.00;92696.44;2106884;28;20040;-82
2022/01/06 00:41:33;;;;;;;6.88;2.17;;;;;;;-1.65;100.00;92708.25;2106019;28;20031;-84
2022/01/06 00:42:33;;;;;;;7.05;2.10;;;;;;;-1.70;100.00;92706.69;2098219;28;20031;-83
2022/01/06 00:43:34;;;;;;;6.57;2.28;;;;;;;-1.72;100.00;92700.28;2106268;28;20131;-82
2022/01/06 00:44:35;;;;;;;6.93;1.92;;;;;;;-1.61;100.00;92701.97;2106025;28;20392;-83
2022/01/06 00:45:36;;;;;;;5.70;2.17;;;;;;;-1.62;100.00;92695.22;2097927;28;20163;-82
2022/01/06 00:46:40;;;;;;;8.43;2.00;;;;;;;-1.59;100.00;92705.00;2098098;28;20024;-83
2022/01/06 00:47:44;;;;;;;5.38;2.08;;;;;;;-1.79;100.00;92700.91;2107799;28;20031;-83
2022/01/06 00:48:45;;;;;;;6.15;2.03;;;;;;;-1.74;100.00;92705.88;2103877;28;20126;-82
2022/01/06 00:49:47;;;;;;;5.88;2.05;;;;;;;-1.71;100.00;92705.19;2097762;28;20028;-83
2022/01/06 00:50:48;;;;;;;8.77;2.30;;;;;;;-1.68;100.00;92703.72;2106223;28;20028;-84
2022/01/06 00:51:49;;;;;;;5.93;2.08;;;;;;;-1.68;100.00;92691.38;2114643;28;20338;-83
2022/01/06 00:52:52;;;;;;;5.82;2.08;;;;;;;-1.70;100.00;92698.84;2106056;28;20024;-83
2022/01/06 00:53:53;;;;;;;5.07;2.10;;;;;;;-1.65;100.00;92693.28;2101841;28;20031;-83
2022/01/06 00:54:54;;;;;;;5.57;1.50;;;;;;;-1.80;100.00;92699.38;2097661;28;20048;-82
2022/01/06 00:55:55;;;;;;;6.18;2.30;;;;;;;-1.86;100.00;92700.78;2094172;28;20020;-84
2022/01/06 00:56:56;;;;;;;8.88;1.95;;;;;;;-1.65;100.00;92705.66;2092806;28;20654;-83
2022/01/06 00:57:57;;;;;;;3.28;1.70;;;;;;;-1.67;100.00;92708.59;2082849;28;20022;-83
2022/01/06 00:58:58;;;;;;;5.07;1.80;;;;;;;-1.68;100.00;92704.47;2096700;28;20673;-83
2022/01/06 00:59:59;;;;;;;9.93;2.30;;;;;;;-1.35;100.00;92703.91;2097783;28;20020;-83
2022/01/06 01:01:00;;;;;;;8.98;2.13;;;;;;;-1.55;100.00;92705.81;2081359;28;20057;-83
2022/01/06 01:02:01;;;;;;;5.35;1.95;;;;;;;-1.45;100.00;92704.47;2075613;28;20021;-82
2022/01/06 01:03:04;;;;;;;4.15;1.92;;;;;;;-1.37;100.00;92702.72;2089663;28;20037;-82
2022/01/06 01:04:05;;;;;;;4.32;1.40;;;;;;;-1.53;100.00;92702.84;2091985;28;20116;-83
2022/01/06 01:05:07;;;;;;;6.47;1.85;;;;;;;-1.48;100.00;92704.44;2097764;28;20020;-83
2022/01/06 01:06:08;;;;;;;6.45;1.98;;;;;;;-1.61;100.00;92704.59;2097625;28;20025;-82
2022/01/06 01:07:11;;;;;;;3.85;1.67;;;;;;;-1.55;100.00;92697.94;2110636;28;20020;-82
2022/01/06 01:08:12;;;;;;;3.60;1.33;;;;;;;-1.42;100.00;92703.78;2090976;28;20029;-82
2022/01/06 01:09:13;;;;;;;2.97;1.65;;;;;;;-1.19;100.00;92701.13;2097792;28;20394;-82
2022/01/06 01:10:17;;;;;;;6.10;1.88;;;;;;;-1.38;100.00;92709.06;2097345;28;20020;-83
2022/01/06 01:11:18;;;;;;;4.13;1.85;;;;;;;-1.48;100.00;92705.19;2100801;28;20576;-82
2022/01/06 01:12:19;;;;;;;3.55;1.70;;;;;;;-1.68;100.00;92707.09;2097074;28;20059;-82
2022/01/06 01:13:31;;;;;;;3.33;1.63;;;;;;;-1.73;100.00;92710.00;2097458;28;20048;-83
2022/01/06 01:14:56;;;;;;;4.53;1.85;;;;;;;-1.64;100.00;92707.16;2100944;28;20029;-83
2022/01/06 01:16:08;;;;;;;3.17;1.52;;;;;;;-1.56;100.00;92712.16;2106027;28;20023;-83
2022/01/06 01:17:13;;;;;;;2.45;1.42;;;;;;;-1.67;100.00;92710.47;2099276;28;20039;-83
2022/01/06 01:18:18;;;;;;;9.02;1.85;;;;;;;-1.61;100.00;92706.47;2090009;28;20031;-84
2022/01/06 01:19:20;;;;;;;4.45;1.88;;;;;;;-1.71;100.00;92707.81;2090229;28;20021;-82
2022/01/06 01:20:21;;;;;;;3.92;1.80;;;;;;;-1.85;100.00;92710.16;2089455;28;20027;-83
2022/01/06 01:21:26;;;;;;;6.25;1.70;;;;;;;-1.55;100.00;92711.06;2080993;28;20037;-84
2022/01/06 01:22:27;;;;;;;4.40;1.67;;;;;;;-1.38;100.00;92715.06;2090465;28;20385;-82
2022/01/06 01:23:28;;;;;;;4.15;2.00;;;;;;;-1.59;100.00;92715.47;2090524;28;20020;-83
2022/01/06 01:24:29;;;;;;;3.33;1.60;;;;;;;-1.48;100.00;92713.03;2089288;28;20048;-84
2022/01/06 01:25:30;;;;;;;2.47;1.45;;;;;;;-1.46;100.00;92712.69;2089370;28;20025;-83
2022/01/06 01:26:32;;;;;;;1.63;1.23;;;;;;;-1.34;100.00;92707.28;2097565;28;20021;-83
2022/01/06 01:27:38;;;;;;;3.80;1.30;;;;;;;-1.39;100.00;92708.31;2097430;28;20024;-84
2022/01/06 01:28:45;;;;;;;2.47;1.60;;;;;;;-1.40;100.00;92713.94;2090247;28;20055;-83
2022/01/06 01:30:03;;;;;;;4.28;1.67;;;;;;;-1.50;100.00;92723.09;2082363;28;20030;-84
2022/01/06 01:31:22;;;;;;;6.13;1.67;;;;;;;-1.41;100.00;92717.63;2085773;28;20028;-82
2022/01/06 01:32:32;;;;;;;5.32;1.58;;;;;;;-1.62;100.00;92721.44;2086012;28;20025;-82
2022/01/06 01:33:38;;;;;;;6.88;2.20;;;;;;;-1.46;100.00;92707.44;2091979;28;20029;-84
2022/01/06 01:34:40;;;;;;;5.43;1.42;;;;;;;-1.32;100.00;92710.28;2089856;28;20029;-84
2022/01/06 01:35:44;;;;;;;4.65;1.30;;;;;;;-1.53;100.00;92715.97;2089484;28;20452;-84
2022/01/06 01:36:46;;;;;;;3.97;1.40;;;;;;;-1.52;100.00;92709.59;2090155;28;20025;-83
2022/01/06 01:37:47;;;;;;;3.83;1.40;;;;;;;-1.59;100.00;92718.09;2112671;28;20022;-83
2022/01/06 01:38:48;;;;;;;2.83;1.45;;;;;;;-1.47;100.00;92709.31;2097518;28;20070;-84
2022/01/06 01:39:49;;;;;;;1.88;1.40;;;;;;;-1.45;100.00;92714.19;2089353;28;20485;-84
2022/01/06 01:40:50;;;;;;;4.50;1.45;;;;;;;-1.54;100.00;92717.81;2089207;28;20063;-83
2022/01/06 01:41:52;;;;;;;3.33;1.27;;;;;;;-1.47;100.00;92711.19;2088906;28;20056;-84
2022/01/06 01:42:53;;;;;;;2.60;1.20;;;;;;;-1.55;100.00;92705.06;2089364;28;20029;-83
2022/01/06 01:43:55;;;;;;;3.08;1.20;;;;;;;-1.66;100.00;92717.22;2089442;28;20075;-84
2022/01/06 01:44:56;;;;;;;4.78;1.45;;;;;;;-1.66;100.00;92712.75;2089981;28;20020;-84
2022/01/06 01:46:08;;;;;;;3.00;1.17;;;;;;;-1.69;100.00;92716.06;2097438;28;20521;-84
2022/01/06 01:47:14;;;;;;;3.42;1.23;;;;;;;-1.66;100.00;92712.75;2097308;28;20442;-83
2022/01/06 01:48:24;;;;;;;2.70;1.10;;;;;;;-1.65;100.00;92719.50;2089912;28;20083;-82
2022/01/06 01:50:26;;;;;;;1.70;1.05;;;;;;;-1.43;100.00;92712.00;2097555;28;20028;-83
2022/01/06 01:51:27;;;;;;;3.70;1.30;;;;;;;-1.53;100.00;92715.97;2105643;28;20350;-84
2022/01/06 01:52:28;;;;;;;5.35;1.60;;;;;;;-1.63;100.00;92719.91;2097090;28;20032;-82
2022/01/06 01:53:29;;;;;;;2.25;1.20;;;;;;;-1.29;100.00;92710.34;2105103;28;20077;-83
2022/01/06 01:54:30;;;;;;;6.50;1.02;;;;;;;-1.39;100.00;92715.44;2097438;28;20105;-83
2022/01/06 01:55:32;;;;;;;3.95;1.52;;;;;;;-1.37;100.00;92723.69;2105874;28;20024;-84
2022/01/06 01:56:34;;;;;;;1.20;1.05;;;;;;;-1.26;100.00;92719.38;2106000;28;20552;-84
2022/01/06 01:57:35;;;;;;;2.47;1.08;;;;;;;-1.31;100.00;92728.31;2097600;28;20017;-84
2022/01/06 01:58:38;;;;;;;2.92;1.08;;;;;;;-1.32;100.00;92726.00;2105943;28;20452;-82
2022/01/06 01:59:39;;;;;;;2.22;1.33;;;;;;;-1.52;100.00;92731.31;2097699;28;20025;-84
2022/01/06 02:00:40;;;;;;;4.05;1.00;;;;;;;-1.49;100.00;92729.88;2089327;28;20017;-83
2022/01/06 02:01:42;;;;;;;2.58;1.30;;;;;;;-1.38;100.00;92740.53;2089073;28;20502;-84
2022/01/06 02:02:44;;;;;;;3.47;1.27;;;;;;;-1.42;100.00;92745.72;2105886;28;20075;-84
2022/01/06 02:03:45;;;;;;;1.80;1.10;;;;;;;-1.65;100.00;92740.47;2097287;28;20119;-83
2022/01/06 02:04:48;;;;;;;2.25;1.27;;;;;;;-1.55;100.00;92749.59;2089202;28;20025;-83
2022/01/06 02:05:48;;;;;;;2.75;1.27;;;;;;;-1.60;100.00;92757.75;2096778;28;20039;-83
2022/01/06 02:06:49;;;;;;;4.30;1.23;;;;;;;-1.64;100.00;92749.81;2093478;28;20658;-83
2022/01/06 02:07:51;;;;;;;1.92;1.10;;;;;;;-1.73;100.00;92749.28;2097217;28;20104;-83
2022/01/06 02:08:54;;;;;;;1.33;0.90;;;;;;;-1.73;100.00;92751.16;2101683;28;20200;-84
2022/01/06 02:09:55;;;;;;;3.25;1.02;;;;;;;-1.53;100.00;92750.03;2097436;28;20500;-84
2022/01/06 02:10:56;;;;;;;2.75;1.00;;;;;;;-1.63;100.00;92755.81;2099086;28;20056;-85
2022/01/06 02:11:57;;;;;;;2.03;0.98;;;;;;;-1.49;100.00;92755.31;2097168;28;20027;-84
2022/01/06 02:13:01;;;;;;;1.92;1.00;;;;;;;-1.42;100.00;92750.19;2080625;28;20017;-84
2022/01/06 02:14:05;;;;;;;3.25;0.93;;;;;;;-1.35;100.00;92753.72;2081166;28;20042;-83
2022/01/06 02:15:13;;;;;;;2.15;0.82;;;;;;;-1.33;100.00;92756.72;2073644;28;20029;-83
2022/01/06 02:16:23;;;;;;;2.75;0.90;;;;;;;-1.39;100.00;92754.75;2083046;28;20556;-83
2022/01/06 02:17:29;;;;;;;1.35;1.00;;;;;;;-1.48;100.00;92754.22;2081979;28;20052;-84
2022/01/06 02:18:30;;;;;;;0.80;0.80;;;;;;;-1.49;100.00;92756.09;2074073;28;20033;-84
2022/01/06 02:19:31;;;;;;;3.00;1.10;;;;;;;-1.42;100.00;92761.44;2072652;28;20441;-84
2022/01/06 02:20:32;;;;;;;4.45;1.38;;;;;;;-1.24;100.00;92755.72;2082101;28;20029;-84
2022/01/06 02:21:39;;;;;;;1.00;0.90;;;;;;;-1.26;100.00;92756.09;2088944;28;20048;-85
2022/01/06 02:22:40;;;;;;;3.05;0.90;;;;;;;-1.42;100.00;92756.19;2090731;28;20028;-85
2022/01/06 02:23:43;;;;;;;1.85;0.88;;;;;;;-1.38;100.00;92759.63;2086027;28;20108;-84
2022/01/06 02:24:45;;;;;;;2.75;0.80;;;;;;;-1.48;100.00;92754.22;2081291;28;20406;-85
2022/01/06 02:25:45;;;;;;;1.75;0.95;;;;;;;-1.53;100.00;92756.03;2089107;28;20059;-84
2022/01/06 02:26:46;;;;;;;3.13;1.13;;;;;;;-1.33;100.00;92763.84;2097164;28;20025;-83
2022/01/06 02:27:52;;;;;;;1.58;1.05;;;;;;;-1.33;100.00;92758.59;2096581;28;20454;-84
2022/01/06 02:28:53;;;;;;;1.85;0.90;;;;;;;-1.53;100.00;92766.50;2089497;28;20476;-83
2022/01/06 02:29:54;;;;;;;3.25;0.95;;;;;;;-1.46;100.00;92771.09;2088903;28;20025;-85
2022/01/06 02:30:57;;;;;;;2.58;0.80;;;;;;;-1.59;100.00;92767.13;2080660;28;20055;-84
2022/01/06 02:31:58;;;;;;;1.83;1.10;;;;;;;-1.56;100.00;92769.06;2073064;28;20018;-84
2022/01/06 02:33:01;;;;;;;3.97;1.48;;;;;;;-1.50;100.00;92772.91;2079658;28;20021;-84
2022/01/06 02:34:02;;;;;;;2.13;0.90;;;;;;;-1.49;100.00;92771.81;2089503;28;20536;-83
2022/01/06 02:35:15;;;;;;;1.65;0.90;;;;;;;-1.30;100.00;92765.75;2105577;28;20028;-83
2022/01/06 02:36:16;;;;;;;2.58;1.00;;;;;;;-1.46;100.00;92770.34;2098914;28;20052;-85
2022/01/06 02:37:17;;;;;;;2.60;1.10;;;;;;;-1.57;100.00;92768.31;2097116;28;20017;-84
2022/01/06 02:38:18;;;;;;;3.20;1.00;;;;;;;-1.49;100.00;92774.44;2080721;28;20056;-85
2022/01/06 02:39:19;;;;;;;1.70;0.88;;;;;;;-1.39;100.00;92767.84;2088938;28;20032;-84
2022/01/06 02:40:23;;;;;;;2.53;1.15;;;;;;;-1.56;100.00;92772.44;2089021;28;20025;-84
2022/01/06 02:41:30;;;;;;;1.63;0.95;;;;;;;-1.53;100.00;92779.63;2077076;28;20039;-83
2022/01/06 02:42:36;;;;;;;2.05;0.90;;;;;;;-1.63;100.00;92779.41;2082342;28;20025;-84
2022/01/06 02:43:42;;;;;;;2.78;0.90;;;;;;;-1.51;100.00;92776.63;2089496;28;20716;-82
2022/01/06 02:44:50;;;;;;;2.05;0.70;;;;;;;-1.43;100.00;92770.41;2081109;28;20025;-83
2022/01/06 02:45:56;;;;;;;1.83;0.90;;;;;;;-1.38;100.00;92777.22;2074493;28;20029;-83
2022/01/06 02:46:59;;;;;;;1.73;0.98;;;;;;;-1.40;100.00;92777.59;2073662;28;20026;-83
2022/01/06 02:48:05;;;;;;;2.08;0.80;;;;;;;-1.56;100.00;92769.81;2073142;28;20022;-83
2022/01/06 02:49:10;;;;;;;1.48;0.82;;;;;;;-1.44;100.00;92779.38;2081374;28;20021;-84
2022/01/06 02:50:14;;;;;;;2.10;0.88;;;;;;;-1.35;100.00;92779.91;2081707;28;20175;-84
2022/01/06 02:51:15;;;;;;;1.95;1.10;;;;;;;-1.45;100.00;92785.72;2081089;28;20027;-83
2022/01/06 02:52:15;;;;;;;1.45;0.80;;;;;;;-1.41;100.00;92777.91;2088783;28;20029;-82
2022/01/06 02:53:18;;;;;;;3.03;0.80;;;;;;;-1.29;100.00;92780.38;2088785;28;20069;-83
2022/01/06 02:54:20;;;;;;;0.95;0.90;;;;;;;-1.49;100.00;92787.53;2080939;28;20029;-82
2022/01/06 02:55:21;;;;;;;2.30;1.63;;;;;;;-1.54;100.00;92790.41;2080800;28;20021;-83
2022/01/06 02:56:22;;;;;;;2.55;0.80;;;;;;;-1.53;100.00;92789.34;2080603;28;20040;-83
2022/01/06 02:57:23;;;;;;;2.35;0.90;;;;;;;-1.56;100.00;92785.53;2088846;28;20029;-84
2022/01/06 02:58:24;;;;;;;2.35;0.82;;;;;;;-1.33;100.00;92785.56;2088851;28;20793;-84
2022/01/06 02:59:25;;;;;;;1.00;0.95;;;;;;;-1.51;100.00;92794.97;2096886;28;20020;-83
2022/01/06 03:00:26;;;;;;;1.55;1.00;;;;;;;-1.48;100.00;92793.53;2097125;28;20116;-83
2022/01/06 03:01:27;;;;;;;1.98;0.93;;;;;;;-1.46;100.00;92793.94;2088616;28;20080;-84
2022/01/06 03:02:28;;;;;;;1.35;0.70;;;;;;;-1.33;100.00;92790.81;2080439;28;20021;-83
2022/01/06 03:03:29;;;;;;;1.42;0.80;;;;;;;-1.43;100.00;92794.00;2081400;28;20148;-84
2022/01/06 03:04:30;;;;;;;1.23;0.98;;;;;;;-1.48;100.00;92796.91;2089608;28;20055;-83
2022/01/06 03:05:32;;;;;;;1.65;0.85;;;;;;;-1.49;100.00;92792.00;2090471;28;20446;-84
2022/01/06 03:06:33;;;;;;;1.30;1.00;;;;;;;-1.53;100.00;92791.97;2087773;28;20025;-84
2022/01/06 03:07:34;;;;;;;4.50;1.02;;;;;;;-1.59;100.00;92791.47;2082237;28;20595;-83
2022/01/06 03:08:37;;;;;;;3.17;1.08;;;;;;;-1.53;100.00;92790.09;2082134;28;20118;-84
2022/01/06 03:09:40;;;;;;;2.05;0.70;;;;;;;-1.54;100.00;92793.81;2090998;28;20025;-84
2022/01/06 03:10:43;;;;;;;1.85;0.90;;;;;;;-1.56;100.00;92798.63;2098817;28;20051;-84
2022/01/06 03:11:44;;;;;;;1.95;0.77;;;;;;;-1.58;100.00;92800.09;2098733;28;20362;-83
2022/01/06 03:12:47;;;;;;;1.58;0.80;;;;;;;-1.43;100.00;92794.00;2098608;28;20047;-83
2022/01/06 03:13:48;;;;;;;1.42;0.98;;;;;;;-1.38;100.00;92801.56;2090871;28;20024;-83
2022/01/06 03:14:49;;;;;;;1.80;0.80;;;;;;;-1.45;100.00;92790.97;2098676;28;20046;-83
2022/01/06 03:15:50;;;;;;;2.42;0.80;;;;;;;-1.49;100.00;92792.78;2098648;28;20444;-83
2022/01/06 03:16:51;;;;;;;2.20;0.70;;;;;;;-1.53;100.00;92791.97;2090194;28;20624;-84
2022/01/06 03:17:57;;;;;;;1.17;0.85;;;;;;;-1.54;100.00;92793.03;2090568;28;20115;-83
2022/01/06 03:18:58;;;;;;;2.15;1.08;;;;;;;-1.54;100.00;92799.06;2098600;28;20021;-83
2022/01/06 03:20:00;;;;;;;1.58;0.93;;;;;;;-1.60;100.00;92797.06;2103705;28;20624;-84
2022/01/06 03:21:03;;;;;;;1.58;0.98;;;;;;;-1.55;100.00;92805.38;2098548;28;20481;-83
2022/01/06 03:22:06;;;;;;;1.83;0.95;;;;;;;-1.60;100.00;92797.81;2105288;28;20023;-83
2022/01/06 03:23:08;;;;;;;2.15;0.82;;;;;;;-1.58;100.00;92800.09;2109363;28;20023;-84
2022/01/06 03:24:16;;;;;;;2.85;0.90;;;;;;;-1.64;100.00;92796.22;2098945;28;20021;-84
2022/01/06 03:25:17;;;;;;;1.00;0.77;;;;;;;-1.66;100.00;92799.22;2113871;28;20043;-84
2022/01/06 03:26:26;;;;;;;1.48;0.88;;;;;;;-1.73;100.00;92795.69;2090380;28;20588;-83
2022/01/06 03:27:27;;;;;;;1.13;0.70;;;;;;;-1.58;100.00;92800.88;2084205;28;20084;-83
2022/01/06 03:28:33;;;;;;;2.25;0.93;;;;;;;-1.68;100.00;92805.88;2090325;28;20559;-85
2022/01/06 03:29:37;;;;;;;2.10;0.90;;;;;;;-1.71;100.00;92804.75;2083493;28;20067;-83
2022/01/06 03:30:41;;;;;;;2.08;0.80;;;;;;;-1.71;100.00;92806.56;2090662;28;20112;-84
2022/01/06 03:31:42;;;;;;;0.93;0.80;;;;;;;-1.68;100.00;92805.88;2090519;28;20025;-84
2022/01/06 03:32:57;;;;;;;0.90;0.70;;;;;;;-1.67;100.00;92810.78;2081893;28;20033;-83
2022/01/06 03:34:00;;;;;;;1.88;0.80;;;;;;;-1.71;100.00;92812.59;2085795;28;20047;-84
2022/01/06 03:35:04;;;;;;;2.65;1.00;;;;;;;-1.79;100.00;92811.69;2082688;28;20463;-84
2022/01/06 03:36:08;;;;;;;3.80;1.00;;;;;;;-1.72;100.00;92818.16;2091028;28;20032;-84
2022/01/06 03:37:09;;;;;;;1.50;0.77;;;;;;;-1.43;100.00;92812.34;2096616;28;20032;-85
2022/01/06 03:38:10;;;;;;;3.15;0.77;;;;;;;-1.46;100.00;92812.28;2092709;28;20017;-84
2022/01/06 03:39:11;;;;;;;3.95;1.33;;;;;;;-1.46;100.00;92810.41;2089810;28;20086;-85
2022/01/06 03:40:12;;;;;;;1.38;0.70;;;;;;;-1.54;100.00;92808.75;2098627;28;20750;-83
2022/01/06 03:41:13;;;;;;;0.98;0.80;;;;;;;-1.54;100.00;92816.63;2090251;28;20037;-84
2022/01/06 03:42:14;;;;;;;2.92;0.93;;;;;;;-1.61;100.00;92801.56;2098149;28;20107;-85
2022/01/06 03:43:15;;;;;;;2.28;1.00;;;;;;;-1.55;100.00;92809.88;2098580;28;20051;-84
2022/01/06 03:44:18;;;;;;;2.42;0.80;;;;;;;-1.45;100.00;92809.31;2113955;28;20121;-84
2022/01/06 03:45:19;;;;;;;2.17;0.95;;;;;;;-1.41;100.00;92809.38;2098405;28;20107;-83
2022/01/06 03:46:20;;;;;;;2.28;0.70;;;;;;;-1.53;100.00;92810.31;2081996;28;20021;-84
2022/01/06 03:47:21;;;;;;;1.95;0.73;;;;;;;-1.56;100.00;92801.25;2090010;28;20025;-84
2022/01/06 03:48:24;;;;;;;2.35;0.90;;;;;;;-1.50;100.00;92806.97;2090155;28;20033;-84
2022/01/06 03:49:25;;;;;;;1.98;0.80;;;;;;;-1.60;100.00;92810.16;2082345;28;20021;-85
2022/01/06 03:50:31;;;;;;;1.75;1.00;;;;;;;-1.41;100.00;92819.84;2082051;28;20022;-85
2022/01/06 03:51:33;;;;;;;2.50;0.80;;;;;;;-1.41;100.00;92819.84;2091482;28;20087;-84
2022/01/06 03:52:38;;;;;;;1.48;0.77;;;;;;;-1.44;100.00;92815.31;2098448;28;20044;-83
2022/01/06 03:53:39;;;;;;;1.65;1.02;;;;;;;-1.47;100.00;92819.38;2098894;28;20424;-84
2022/01/06 03:54:40;;;;;;;1.70;0.80;;;;;;;-1.57;100.00;92818.09;2090017;28;20021;-84
2022/01/06 03:55:41;;;;;;;1.10;0.90;;;;;;;-1.62;100.00;92812.38;2089918;28;20023;-84
2022/01/06 03:56:42;;;;;;;2.05;0.93;;;;;;;-1.70;100.00;92808.13;2098211;28;20021;-84
2022/01/06 03:57:44;;;;;;;1.48;0.80;;;;;;;-1.71;100.00;92814.44;2098343;28;20028;-83
2022/01/06 03:58:45;;;;;;;2.97;1.13;;;;;;;-1.70;100.00;92818.59;2106670;28;20358;-83
2022/01/06 03:59:46;;;;;;;1.33;0.80;;;;;;;-1.77;100.00;92819.19;2098360;28;20070;-83
2022/01/06 04:00:47;;;;;;;3.10;0.98;;;;;;;-1.74;100.00;92820.38;2081975;28;20021;-83
2022/01/06 04:01:48;;;;;;;1.17;0.88;;;;;;;-1.69;100.00;92826.09;2089965;28;20021;-83
2022/01/06 04:02:49;;;;;;;2.03;0.70;;;;;;;-1.70;100.00;92829.81;2098164;28;20021;-84
2022/01/06 04:03:50;;;;;;;2.22;0.90;;;;;;;-1.69;100.00;92833.19;2089896;28;20025;-84
2022/01/06 04:04:51;;;;;;;1.00;0.75;;;;;;;-1.68;100.00;92835.47;2081707;28;20037;-85
2022/01/06 04:05:52;;;;;;;2.15;1.20;;;;;;;-1.74;100.00;92834.25;2094018;28;20071;-84
2022/01/06 04:06:53;;;;;;;1.25;0.85;;;;;;;-1.62;100.00;92836.72;2097896;28;20043;-84
2022/01/06 04:07:54;;;;;;;1.60;0.80;;;;;;;-1.61;100.00;92827.00;2097128;28;20101;-85
2022/01/06 04:08:57;;;;;;;1.50;0.85;;;;;;;-1.60;100.00;92834.50;2097315;28;20028;-84
2022/01/06 04:10:01;;;;;;;0.90;0.90;;;;;;;-1.61;100.00;92837.47;2103885;28;20626;-83
2022/01/06 04:11:03;;;;;;;2.05;0.90;;;;;;;-1.63;100.00;92829.94;2094582;28;20218;-84
2022/01/06 04:12:04;;;;;;;1.85;0.82;;;;;;;-1.61;100.00;92833.00;2089743;28;20025;-85
2022/01/06 04:13:05;;;;;;;2.97;0.90;;;;;;;-1.71;100.00;92846.66;2089949;28;20025;-83
2022/01/06 04:14:09;;;;;;;0.85;0.80;;;;;;;-1.69;100.00;92836.56;2098045;28;20139;-85
2022/01/06 04:15:13;;;;;;;1.33;0.88;;;;;;;-1.70;100.00;92836.94;2098814;28;20028;-85
2022/01/06 04:16:16;;;;;;;1.17;0.68;;;;;;;-1.67;100.00;92839.59;2097323;28;20052;-84
2022/01/06 04:17:17;;;;;;;1.90;1.27;;;;;;;-1.62;100.00;92839.34;2098461;28;20025;-85
2022/01/06 04:18:18;;;;;;;1.20;0.93;;;;;;;-1.57;100.00;92840.94;2089877;28;20036;-84
2022/01/06 04:19:19;;;;;;;1.73;0.75;;;;;;;-1.56;100.00;92842.44;2089642;28;20098;-84
2022/01/06 04:20:20;;;;;;;2.25;0.90;;;;;;;-1.58;100.00;92845.41;2089866;28;20107;-84
2022/01/06 04:21:25;;;;;;;0.73;0.73;;;;;;;-1.54;100.00;92837.59;2094014;28;20096;-83
2022/01/06 04:22:32;;;;;;;1.85;0.95;;;;;;;-1.56;100.00;92847.69;2098903;28;20111;-83
2022/01/06 04:23:34;;;;;;;1.35;0.70;;;;;;;-1.55;100.00;92847.31;2097732;28;20117;-83
2022/01/06 04:24:35;;;;;;;0.98;0.70;;;;;;;-1.47;100.00;92840.34;2098125;28;20056;-83
2022/01/06 04:25:36;;;;;;;1.60;0.70;;;;;;;-1.44;100.00;92844.16;2098281;28;20498;-84
2022/01/06 04:26:37;;;;;;;2.40;1.15;;;;;;;-1.44;100.00;92838.91;2089943;28;20028;-83
2022/01/06 04:27:38;;;;;;;0.80;0.73;;;;;;;-1.43;100.00;92838.56;2089773;28;20112;-84
2022/01/06 04:28:42;;;;;;;0.57;0.57;;;;;;;-1.46;100.00;92841.13;2098137;28;20375;-85
2022/01/06 04:29:43;;;;;;;2.45;0.93;;;;;;;-1.50;100.00;92842.91;2098613;28;20036;-84
2022/01/06 04:30:44;;;;;;;1.48;0.88;;;;;;;-1.48;100.00;92845.94;2097829;28;20024;-84
2022/01/06 04:31:45;;;;;;;2.63;0.80;;;;;;;-1.48;100.00;92851.19;2089646;28;20698;-83
2022/01/06 04:32:46;;;;;;;0.93;0.80;;;;;;;-1.44;100.00;92837.06;2097140;28;20031;-83
2022/01/06 04:33:47;;;;;;;2.53;0.85;;;;;;;-1.47;100.00;92852.72;2097434;28;20029;-83
2022/01/06 04:34:48;;;;;;;2.25;1.10;;;;;;;-1.46;100.00;92848.97;2098711;28;20505;-84
2022/01/06 04:35:50;;;;;;;1.50;0.93;;;;;;;-1.37;100.00;92844.28;2106305;28;20032;-83
2022/01/06 04:36:55;;;;;;;1.67;1.20;;;;;;;-1.48;100.00;92848.56;2097895;28;20101;-84
2022/01/06 04:37:59;;;;;;;10.45;9.32;;;;;;;-1.52;100.00;92851.13;2082551;28;20029;-83
2022/01/06 04:39:02;;;;;;;5.53;5.00;;;;;;;-1.51;100.00;92850.00;2083053;28;20063;-83
2022/01/06 04:40:07;;;;;;;5.75;2.78;;;;;;;-1.52;100.00;92846.63;2091739;28;20050;-83
2022/01/06 04:41:19;;;;;;;1.38;1.13;;;;;;;-1.44;100.00;92858.03;2106920;28;20031;-84
2022/01/06 04:42:30;;;;;;;4.28;2.05;;;;;;;-1.40;100.00;92845.75;2107758;28;20081;-83
2022/01/06 04:43:31;;;;;;;1.77;1.30;;;;;;;-1.45;100.00;92855.72;2098985;28;20226;-84
2022/01/06 04:44:32;;;;;;;1.20;1.10;;;;;;;-1.44;100.00;92857.28;2092285;28;20029;-84
2022/01/06 04:45:33;;;;;;;1.45;1.20;;;;;;;-1.46;100.00;92854.97;2095242;28;20362;-84
2022/01/06 04:46:34;;;;;;;1.23;1.00;;;;;;;-1.49;100.00;92858.31;2089763;28;20355;-83
2022/01/06 04:47:36;;;;;;;1.33;1.05;;;;;;;-1.47;100.00;92857.94;2089805;28;20028;-84
2022/01/06 04:48:37;;;;;;;2.25;1.15;;;;;;;-1.39;100.00;92862.97;2095696;28;20070;-84
2022/01/06 04:49:38;;;;;;;1.67;0.85;;;;;;;-1.43;100.00;92864.03;2089588;28;20025;-83
2022/01/06 04:50:40;;;;;;;1.08;0.90;;;;;;;-1.34;100.00;92857.44;2091422;28;20028;-83
2022/01/06 04:51:41;;;;;;;1.35;0.90;;;;;;;-1.30;100.00;92860.91;2096193;28;20032;-83
2022/01/06 04:52:42;;;;;;;2.00;1.23;;;;;;;-1.39;100.00;92870.84;2097898;28;20032;-84
2022/01/06 04:53:43;;;;;;;3.97;2.05;;;;;;;-1.43;100.00;92872.63;2101236;28;20047;-83
2022/01/06 04:54:45;;;;;;;2.75;2.35;;;;;;;-1.43;100.00;92872.63;2082449;28;20064;-83
2022/01/06 04:55:46;;;;;;;3.38;2.58;;;;;;;-1.34;100.00;92870.56;2081531;28;20420;-84
2022/01/06 04:56:47;;;;;;;3.78;2.90;;;;;;;-1.40;100.00;92873.81;2097046;28;20120;-84
2022/01/06 04:57:48;;;;;;;6.10;3.00;;;;;;;-1.40;100.00;92874.56;2098054;28;20043;-83